Time;durP1;ratioP1;P1;durP2;ratioP2;P2;SDS_P1;SDS_P2;PMS_P1;PMS_P2;Temp;Humidity;BMP_temperature;BMP_pressure;BME280_temperature;BME280_humidity;BME280_pressure;Samples;Min_cycle;Max_cycle;Signal;HPM_P1;HPM_P2
2023/05/30 00:00:18;;;;;;;0.90;0.60;;;;;;;21.99;46.16;101208.84;4994912;28;20116;-56
2023/05/30 00:02:44;;;;;;;0.80;0.50;;;;;;;21.78;45.53;101216.19;4995694;28;20047;-52
2023/05/30 00:05:12;;;;;;;0.77;0.38;;;;;;;21.72;47.03;101217.28;4994767;28;20128;-51
2023/05/30 00:07:38;;;;;;;0.30;0.20;;;;;;;21.75;46.44;101215.91;4994615;28;20018;-53
2023/05/30 00:10:05;;;;;;;0.40;0.40;;;;;;;21.82;46.61;101216.44;4994444;28;20165;-51
2023/05/30 00:12:31;;;;;;;0.65;0.30;;;;;;;21.76;45.67;101202.00;4994898;28;20022;-46
2023/05/30 00:14:59;;;;;;;0.75;0.30;;;;;;;21.46;46.13;101199.25;4994351;28;20018;-47
2023/05/30 00:17:26;;;;;;;0.73;0.35;;;;;;;21.11;47.40;101214.38;4994666;28;20379;-43
2023/05/30 00:19:54;;;;;;;0.80;0.28;;;;;;;21.30;47.35;101214.72;4994700;28;20597;-47
2023/05/30 00:22:22;;;;;;;0.75;0.40;;;;;;;21.09;47.88;101214.63;4994588;28;20390;-44
2023/05/30 00:24:49;;;;;;;0.73;0.40;;;;;;;21.22;47.49;101210.59;4994181;28;20034;-47
2023/05/30 00:27:17;;;;;;;0.82;0.40;;;;;;;21.15;47.24;101220.91;4994264;28;20362;-46
2023/05/30 00:29:45;;;;;;;2.05;0.30;;;;;;;21.14;48.16;101221.19;4995023;28;20031;-44
2023/05/30 00:32:13;;;;;;;1.85;0.52;;;;;;;21.24;46.99;101215.78;4994425;28;20446;-45
2023/05/30 00:34:40;;;;;;;1.00;0.30;;;;;;;21.26;47.16;101225.31;4994412;28;20057;-43
2023/05/30 00:37:08;;;;;;;0.50;0.10;;;;;;;21.17;46.82;101226.94;4994192;28;20148;-44
2023/05/30 00:39:35;;;;;;;1.10;0.38;;;;;;;20.83;47.17;101230.06;4994559;28;20493;-45
2023/05/30 00:42:03;;;;;;;0.77;0.40;;;;;;;20.76;48.16;101229.47;4994608;28;20389;-46
2023/05/30 00:44:29;;;;;;;0.70;0.47;;;;;;;20.41;47.82;101229.22;4994775;28;20109;-44
2023/05/30 00:46:56;;;;;;;0.38;0.30;;;;;;;20.13;48.66;101235.81;4994875;28;20092;-46
2023/05/30 00:49:22;;;;;;;1.58;0.63;;;;;;;19.93;49.20;101234.59;4994180;28;20102;-47
2023/05/30 00:51:49;;;;;;;2.65;0.60;;;;;;;20.01;48.83;101238.72;4994205;28;20440;-47
2023/05/30 00:54:15;;;;;;;0.80;0.43;;;;;;;19.58;49.66;101232.31;4994029;28;20467;-47
2023/05/30 00:56:42;;;;;;;1.02;0.57;;;;;;;19.58;50.21;101226.88;4994069;28;20088;-47
2023/05/30 00:59:08;;;;;;;2.45;0.70;;;;;;;19.24;51.46;101242.53;4994091;28;20474;-45
2023/05/30 01:01:35;;;;;;;0.93;0.50;;;;;;;19.09;52.24;101243.16;4993152;28;20092;-45
2023/05/30 01:04:01;;;;;;;3.75;0.47;;;;;;;18.96;52.63;101232.72;4993949;28;20126;-46
2023/05/30 01:06:29;;;;;;;3.95;0.60;;;;;;;18.92;53.33;101234.28;4993889;28;20022;-47
2023/05/30 01:08:58;;;;;;;0.73;0.52;;;;;;;18.81;53.00;101236.03;4993764;28;20532;-44
2023/05/30 01:11:45;;;;;;;1.42;0.57;;;;;;;18.74;53.25;101238.13;4993593;28;20026;-47
2023/05/30 01:14:47;;;;;;;1.10;0.60;;;;;;;18.57;54.46;101235.41;4993580;28;20121;-45
2023/05/30 01:17:34;;;;;;;1.67;0.60;;;;;;;18.38;55.44;101242.19;4991402;28;20062;-44
2023/05/30 01:20:17;;;;;;;1.13;0.50;;;;;;;18.19;57.20;101247.03;4993526;28;20546;-49
2023/05/30 01:23:00;;;;;;;1.10;0.50;;;;;;;17.99;57.18;101252.94;4993868;28;20042;-48
2023/05/30 01:25:36;;;;;;;0.90;0.40;;;;;;;18.06;56.80;101250.06;4993360;28;20033;-47
2023/05/30 01:28:13;;;;;;;3.20;0.75;;;;;;;17.95;57.30;101251.78;4993463;28;20023;-47
2023/05/30 01:30:45;;;;;;;1.92;0.70;;;;;;;17.92;58.00;101254.97;4993626;28;20065;-46
2023/05/30 01:33:13;;;;;;;1.40;0.70;;;;;;;18.00;57.63;101253.78;4993750;28;20030;-47
2023/05/30 01:35:47;;;;;;;2.35;1.05;;;;;;;17.98;58.51;101254.00;4993338;28;20065;-46
2023/05/30 01:38:14;;;;;;;0.60;0.60;;;;;;;18.06;57.18;101263.63;4993741;28;20039;-45
2023/05/30 01:40:44;;;;;;;0.73;0.60;;;;;;;17.87;57.75;101271.94;4993596;28;20061;-48
2023/05/30 01:43:32;;;;;;;3.08;0.60;;;;;;;17.77;58.05;101266.38;4993578;28;20039;-48
2023/05/30 01:46:20;;;;;;;0.98;0.60;;;;;;;17.73;58.37;101277.94;4993487;28;20030;-46
2023/05/30 01:49:10;;;;;;;0.55;0.55;;;;;;;17.60;58.71;101271.72;4993346;28;20078;-47
2023/05/30 01:51:57;;;;;;;0.68;0.50;;;;;;;17.79;58.92;101272.34;4993297;28;20092;-47
2023/05/30 01:54:26;;;;;;;1.25;0.50;;;;;;;17.71;58.85;101283.53;4993803;28;20018;-49
2023/05/30 01:57:01;;;;;;;1.42;0.60;;;;;;;17.74;58.34;101277.69;4993370;28;20470;-45
2023/05/30 01:59:28;;;;;;;1.52;0.70;;;;;;;17.75;59.13;101278.50;4993069;28;20034;-47
2023/05/30 02:01:56;;;;;;;1.77;0.60;;;;;;;17.63;58.33;101289.34;4992797;28;20096;-47
2023/05/30 02:04:23;;;;;;;0.93;0.60;;;;;;;17.83;57.85;101278.13;4993156;28;20035;-47
2023/05/30 02:06:50;;;;;;;1.25;0.70;;;;;;;17.74;58.31;101277.69;4993114;28;20042;-46
2023/05/30 02:09:16;;;;;;;1.83;0.70;;;;;;;18.02;56.88;101268.69;4993147;28;20058;-45
2023/05/30 02:11:42;;;;;;;1.58;0.77;;;;;;;18.20;57.19;101279.28;4993111;28;20037;-51
2023/05/30 02:14:08;;;;;;;2.85;0.80;;;;;;;18.34;56.76;101270.84;4994329;28;20033;-50
2023/05/30 02:16:35;;;;;;;0.77;0.70;;;;;;;18.55;55.78;101278.22;4996957;28;20033;-51
2023/05/30 02:19:01;;;;;;;0.80;0.57;;;;;;;18.77;55.10;101274.75;4996869;28;20160;-50
2023/05/30 02:21:27;;;;;;;0.98;0.60;;;;;;;19.08;54.40;101281.41;4996875;28;20486;-51
2023/05/30 02:23:54;;;;;;;2.30;0.68;;;;;;;19.45;53.20;101276.16;4996559;28;20026;-54
2023/05/30 02:26:20;;;;;;;2.30;0.65;;;;;;;19.55;52.79;101287.16;4996976;28;20476;-50
2023/05/30 02:28:46;;;;;;;0.93;0.60;;;;;;;19.59;52.26;101282.88;4996687;28;20526;-60
2023/05/30 02:31:13;;;;;;;2.00;0.68;;;;;;;19.68;52.65;101284.06;4996637;28;20025;-51
2023/05/30 02:33:40;;;;;;;1.40;0.70;;;;;;;19.54;52.69;101282.78;4996557;28;20105;-49
2023/05/30 02:36:08;;;;;;;1.17;0.60;;;;;;;19.57;52.61;101278.75;4996627;28;20466;-49
2023/05/30 02:38:34;;;;;;;2.72;0.52;;;;;;;19.70;52.76;101284.59;4996729;28;20022;-51
2023/05/30 02:41:01;;;;;;;3.25;0.70;;;;;;;19.56;53.06;101291.50;4996331;28;20026;-50
2023/05/30 02:43:27;;;;;;;1.73;0.90;;;;;;;19.65;53.20;101286.44;4997155;28;20101;-51
2023/05/30 02:45:53;;;;;;;3.05;0.70;;;;;;;19.69;53.46;101293.03;4996776;28;20478;-50
2023/05/30 02:48:20;;;;;;;2.05;0.80;;;;;;;19.84;52.62;101293.19;4996277;28;20030;-51
2023/05/30 02:50:46;;;;;;;1.00;0.60;;;;;;;19.50;52.90;101300.66;4996638;28;20026;-51
2023/05/30 02:53:13;;;;;;;1.70;0.50;;;;;;;18.97;54.19;101302.97;4996291;28;20038;-51
2023/05/30 02:55:42;;;;;;;1.33;0.52;;;;;;;18.78;55.14;101292.69;4996642;28;20026;-51
2023/05/30 02:58:13;;;;;;;0.93;0.60;;;;;;;18.28;56.60;101302.47;4996282;28;20080;-51
2023/05/30 03:00:40;;;;;;;1.73;0.90;;;;;;;17.69;58.72;101294.63;4996792;28;20088;-50
2023/05/30 03:03:09;;;;;;;1.92;0.82;;;;;;;17.55;59.60;101290.56;4996219;28;20560;-50
2023/05/30 03:05:36;;;;;;;3.42;0.98;;;;;;;17.11;60.62;101294.81;4996157;28;20034;-49
2023/05/30 03:08:03;;;;;;;1.35;0.75;;;;;;;17.03;61.30;101295.16;4996154;28;20026;-51
2023/05/30 03:10:29;;;;;;;1.52;0.90;;;;;;;16.72;62.51;101296.38;4995965;28;20105;-46
2023/05/30 03:12:56;;;;;;;2.83;0.88;;;;;;;16.60;63.27;101297.19;4996357;28;20106;-51
2023/05/30 03:15:22;;;;;;;1.45;0.90;;;;;;;16.46;64.03;101295.75;4995931;28;20096;-46
2023/05/30 03:17:48;;;;;;;2.63;0.82;;;;;;;16.38;64.34;101304.22;4995779;28;20033;-49
2023/05/30 03:20:16;;;;;;;3.72;0.80;;;;;;;16.43;64.19;101304.31;4995850;28;20470;-50
2023/05/30 03:22:42;;;;;;;4.63;0.98;;;;;;;16.08;65.47;101307.78;4996037;28;20033;-49
2023/05/30 03:25:09;;;;;;;1.38;0.80;;;;;;;16.01;65.87;101301.66;4995373;28;20037;-48
2023/05/30 03:27:35;;;;;;;2.00;0.98;;;;;;;15.87;66.64;101302.06;4995878;28;20105;-49
2023/05/30 03:30:05;;;;;;;2.60;0.70;;;;;;;16.01;66.13;101287.34;4995968;28;20027;-51
2023/05/30 03:32:31;;;;;;;2.00;1.17;;;;;;;15.90;66.53;101294.34;4995874;28;20018;-47
2023/05/30 03:34:57;;;;;;;3.40;1.02;;;;;;;15.83;67.05;101299.03;4994467;28;20023;-50
2023/05/30 03:37:24;;;;;;;3.17;1.70;;;;;;;15.78;66.98;101297.00;4995283;28;20046;-49
2023/05/30 03:39:50;;;;;;;2.03;1.20;;;;;;;15.61;67.53;101295.16;4995760;28;20145;-51
2023/05/30 03:42:16;;;;;;;3.17;0.88;;;;;;;15.58;67.72;101291.84;4995491;28;20102;-50
2023/05/30 03:44:42;;;;;;;1.80;1.00;;;;;;;15.54;68.50;101298.75;4995446;28;20423;-50
2023/05/30 03:47:08;;;;;;;1.95;1.00;;;;;;;15.51;68.21;101303.78;4995476;28;20022;-50
2023/05/30 03:49:35;;;;;;;2.00;1.17;;;;;;;15.39;69.01;101313.69;4995278;28;20027;-50
2023/05/30 03:52:01;;;;;;;3.70;1.27;;;;;;;15.33;69.35;101310.03;4995221;28;20054;-49
2023/05/30 03:54:27;;;;;;;1.73;0.80;;;;;;;15.30;69.07;101310.47;4995223;28;20085;-49
2023/05/30 03:56:53;;;;;;;3.95;1.38;;;;;;;15.24;69.33;101312.19;5010245;28;20363;-50
2023/05/30 03:59:20;;;;;;;4.35;1.45;;;;;;;15.12;69.84;101324.78;4995120;28;20022;-48
2023/05/30 04:01:46;;;;;;;2.60;1.42;;;;;;;15.21;69.15;101319.91;4995000;28;20085;-48
2023/05/30 04:04:12;;;;;;;2.25;1.17;;;;;;;15.15;69.66;101320.81;4995239;28;20030;-51
2023/05/30 04:06:39;;;;;;;2.58;0.93;;;;;;;14.99;70.23;101320.38;4994982;28;20110;-50
2023/05/30 04:09:06;;;;;;;1.52;0.70;;;;;;;15.10;69.47;101320.66;4994950;28;20030;-47
2023/05/30 04:11:32;;;;;;;2.78;1.45;;;;;;;14.94;70.45;101327.47;4994797;28;20081;-47
2023/05/30 04:13:58;;;;;;;3.40;1.00;;;;;;;14.95;70.81;101324.56;4994741;28;20034;-49
2023/05/30 04:16:25;;;;;;;1.67;1.13;;;;;;;14.95;70.64;101316.47;4995135;28;20467;-50
2023/05/30 04:18:51;;;;;;;2.08;1.17;;;;;;;14.86;70.51;101317.78;4994854;28;20073;-49
2023/05/30 04:21:17;;;;;;;2.28;0.90;;;;;;;14.89;70.47;101324.63;4994693;28;20034;-47
2023/05/30 04:23:43;;;;;;;1.88;1.00;;;;;;;14.85;70.61;101320.72;4994627;28;20031;-50
2023/05/30 04:26:10;;;;;;;1.52;0.82;;;;;;;14.98;70.42;101339.44;4994466;28;20038;-49
2023/05/30 04:28:42;;;;;;;5.00;1.20;;;;;;;14.96;70.35;101339.66;4994651;28;20030;-50
2023/05/30 04:31:09;;;;;;;2.85;1.20;;;;;;;14.93;70.91;101342.78;4994980;28;20115;-47
2023/05/30 04:33:36;;;;;;;1.90;1.10;;;;;;;14.82;71.16;101345.41;4994468;28;20034;-51
2023/05/30 04:36:06;;;;;;;2.28;1.00;;;;;;;14.76;71.14;101347.13;4993741;28;20043;-49
2023/05/30 04:38:34;;;;;;;2.33;0.90;;;;;;;14.80;71.09;101353.72;4994155;28;20061;-47
2023/05/30 04:41:04;;;;;;;2.38;1.02;;;;;;;14.76;71.09;101352.50;4994240;28;20034;-49
2023/05/30 04:43:31;;;;;;;5.60;1.73;;;;;;;14.93;70.28;101355.44;4994231;28;20035;-50
2023/05/30 04:46:00;;;;;;;2.20;1.00;;;;;;;14.95;70.11;101351.50;4994185;28;20053;-48
2023/05/30 04:48:28;;;;;;;3.53;1.15;;;;;;;14.90;70.59;101353.22;4994115;28;20489;-47
2023/05/30 04:50:56;;;;;;;2.58;1.02;;;;;;;14.83;70.82;101357.84;4994384;28;20030;-48
2023/05/30 04:53:23;;;;;;;1.92;1.00;;;;;;;14.90;70.55;101358.59;4994438;28;20040;-48
2023/05/30 04:55:50;;;;;;;3.47;1.35;;;;;;;14.73;71.21;101363.75;4994059;28;20030;-48
2023/05/30 04:58:17;;;;;;;2.50;1.00;;;;;;;14.79;71.25;101363.66;4993934;28;20023;-47
2023/05/30 05:00:44;;;;;;;1.98;1.00;;;;;;;14.60;72.02;101369.22;4993834;28;20030;-49
2023/05/30 05:03:10;;;;;;;3.50;1.20;;;;;;;14.87;70.99;101367.13;4993824;28;20026;-49
2023/05/30 05:05:39;;;;;;;3.70;0.98;;;;;;;14.75;71.41;101375.09;4994037;28;20061;-48
2023/05/30 05:08:06;;;;;;;3.47;1.30;;;;;;;14.69;71.48;101365.22;4993892;28;20390;-48
2023/05/30 05:10:32;;;;;;;2.15;0.85;;;;;;;14.51;72.09;101360.59;4993900;28;20065;-49
2023/05/30 05:12:58;;;;;;;3.58;1.13;;;;;;;14.48;72.39;101367.22;4993791;28;20034;-50
2023/05/30 05:15:24;;;;;;;2.10;1.00;;;;;;;14.55;71.85;101361.81;4993786;28;20528;-50
2023/05/30 05:17:51;;;;;;;3.08;0.98;;;;;;;14.60;72.01;101353.06;4993793;28;20096;-48
2023/05/30 05:20:17;;;;;;;1.95;1.10;;;;;;;14.55;72.50;101356.44;4993635;28;20034;-50
2023/05/30 05:22:44;;;;;;;2.55;1.10;;;;;;;14.63;71.83;101358.00;4993928;28;20030;-50
2023/05/30 05:25:10;;;;;;;3.45;1.20;;;;;;;14.76;71.48;101358.72;4993542;28;20033;-49
2023/05/30 05:27:39;;;;;;;3.58;0.93;;;;;;;14.61;72.38;101349.34;5008733;28;20038;-48
2023/05/30 05:30:06;;;;;;;2.13;1.17;;;;;;;14.55;72.98;101350.19;4993889;28;20406;-47
2023/05/30 05:32:36;;;;;;;3.38;1.10;;;;;;;14.54;72.85;101354.75;4993693;28;20054;-49
2023/05/30 05:35:03;;;;;;;1.52;1.20;;;;;;;14.61;73.02;101358.25;4993459;28;20483;-50
2023/05/30 05:37:29;;;;;;;4.70;1.60;;;;;;;14.75;72.14;101356.25;4991700;28;20042;-51
2023/05/30 05:39:55;;;;;;;2.42;1.08;;;;;;;14.68;72.59;101355.50;4993516;28;20053;-48
2023/05/30 05:42:22;;;;;;;3.65;1.50;;;;;;;14.62;72.61;101349.09;4993421;28;20497;-49
2023/05/30 05:44:48;;;;;;;2.40;1.02;;;;;;;14.65;72.81;101351.34;4993404;28;20030;-51
2023/05/30 05:47:14;;;;;;;1.58;1.02;;;;;;;14.55;73.48;101358.28;4993730;28;20097;-50
2023/05/30 05:49:40;;;;;;;2.08;0.88;;;;;;;14.61;73.16;101362.81;4997623;28;20085;-47
2023/05/30 05:52:07;;;;;;;1.92;1.05;;;;;;;14.53;73.59;101356.63;4997671;28;20403;-49
2023/05/30 05:54:33;;;;;;;2.47;1.23;;;;;;;14.49;74.15;101347.38;4997512;28;20426;-51
2023/05/30 05:56:59;;;;;;;1.92;0.98;;;;;;;14.54;74.27;101338.59;4997411;28;20113;-47
2023/05/30 05:59:25;;;;;;;1.45;1.10;;;;;;;14.52;74.75;101338.81;4997537;28;20034;-49
2023/05/30 06:01:52;;;;;;;2.78;1.10;;;;;;;14.55;74.45;101334.03;4997345;28;20084;-47
2023/05/30 06:04:19;;;;;;;1.98;1.10;;;;;;;14.42;75.36;101341.16;4997879;28;20073;-49
2023/05/30 06:06:45;;;;;;;2.88;1.10;;;;;;;14.37;75.30;101335.59;4997480;28;20026;-49
2023/05/30 06:09:11;;;;;;;2.97;0.95;;;;;;;14.45;75.06;101332.63;4997317;28;20026;-48
2023/05/30 06:11:37;;;;;;;2.28;1.20;;;;;;;14.46;75.02;101342.38;4997660;28;20034;-51
2023/05/30 06:14:04;;;;;;;1.90;1.15;;;;;;;14.48;74.90;101339.47;4997196;28;20022;-50
2023/05/30 06:16:30;;;;;;;2.58;1.00;;;;;;;14.61;74.32;101333.19;4997042;28;20494;-49
2023/05/30 06:18:56;;;;;;;4.60;1.23;;;;;;;14.55;74.38;101342.09;4997051;28;20037;-50
2023/05/30 06:21:23;;;;;;;1.95;1.00;;;;;;;14.52;74.46;101336.13;4997411;28;20061;-50
2023/05/30 06:23:49;;;;;;;2.85;1.35;;;;;;;14.43;74.78;101334.72;4997106;28;20033;-51
2023/05/30 06:26:15;;;;;;;1.05;0.90;;;;;;;14.56;74.11;101325.75;4997001;28;20081;-50
2023/05/30 06:28:41;;;;;;;2.17;1.00;;;;;;;14.50;74.29;101329.31;4996837;28;20022;-48
2023/05/30 06:31:08;;;;;;;2.45;0.95;;;;;;;14.50;74.17;101322.06;4996751;28;20026;-49
2023/05/30 06:33:34;;;;;;;3.63;1.10;;;;;;;14.43;74.82;101326.63;4996747;28;20022;-49
2023/05/30 06:36:00;;;;;;;4.00;1.33;;;;;;;14.58;74.19;101322.81;4996659;28;20412;-48
2023/05/30 06:38:26;;;;;;;3.28;0.90;;;;;;;14.44;74.72;101331.00;4996637;28;20022;-47
2023/05/30 06:40:53;;;;;;;4.75;1.35;;;;;;;14.60;74.07;101326.13;4996814;28;20037;-51
2023/05/30 06:43:19;;;;;;;2.03;1.00;;;;;;;14.65;73.83;101324.41;4996824;28;20168;-47
2023/05/30 06:45:45;;;;;;;1.90;0.88;;;;;;;14.63;73.80;101331.91;4996916;28;20497;-48
2023/05/30 06:48:12;;;;;;;2.75;1.00;;;;;;;14.53;74.50;101337.78;4996543;28;20050;-56
2023/05/30 06:50:38;;;;;;;1.17;0.80;;;;;;;14.74;72.92;101339.25;4996360;28;20037;-49
2023/05/30 06:53:04;;;;;;;3.30;0.88;;;;;;;14.58;73.56;101328.22;4996317;28;20053;-49
2023/05/30 06:55:30;;;;;;;1.58;0.93;;;;;;;14.53;73.78;101335.06;4996398;28;20129;-50
2023/05/30 06:57:57;;;;;;;1.92;1.10;;;;;;;14.62;73.21;101324.03;4996400;28;20034;-52
2023/05/30 07:00:23;;;;;;;2.50;1.13;;;;;;;14.63;73.41;101331.06;4995045;28;20085;-45
2023/05/30 07:02:50;;;;;;;1.35;1.00;;;;;;;14.66;73.60;101339.56;4996090;28;20077;-47
2023/05/30 07:05:16;;;;;;;2.50;0.90;;;;;;;14.67;73.07;101340.38;4995963;28;20023;-47
2023/05/30 07:07:43;;;;;;;3.10;0.98;;;;;;;14.76;72.52;101339.03;4995955;28;20029;-50
2023/05/30 07:10:10;;;;;;;3.05;1.00;;;;;;;14.72;72.70;101340.53;4996175;28;20054;-50
2023/05/30 07:12:36;;;;;;;3.38;1.17;;;;;;;14.74;72.09;101333.03;4995976;28;20037;-49
2023/05/30 07:15:03;;;;;;;2.67;0.90;;;;;;;14.65;72.20;101331.66;4996038;28;20026;-49
2023/05/30 07:17:29;;;;;;;1.88;0.90;;;;;;;14.71;72.53;101328.09;4996120;28;20034;-50
2023/05/30 07:19:56;;;;;;;2.10;0.90;;;;;;;14.61;72.92;101328.59;4995846;28;20382;-51
2023/05/30 07:22:22;;;;;;;2.58;1.02;;;;;;;14.72;72.38;101324.38;4995631;28;20022;-50
2023/05/30 07:24:48;;;;;;;1.95;0.90;;;;;;;14.61;72.53;101328.59;4995746;28;20092;-49
2023/05/30 07:27:14;;;;;;;2.83;1.08;;;;;;;14.60;72.49;101328.81;4995697;28;20031;-47
2023/05/30 07:29:41;;;;;;;1.50;0.90;;;;;;;14.63;72.13;101323.81;4995629;28;20117;-49
2023/05/30 07:32:07;;;;;;;1.75;0.98;;;;;;;14.45;72.91;101324.56;4995759;28;20046;-49
2023/05/30 07:34:33;;;;;;;2.75;1.00;;;;;;;14.52;73.14;101332.63;4995524;28;20496;-50
2023/05/30 07:37:00;;;;;;;2.95;1.05;;;;;;;14.71;72.79;101330.78;4995298;28;20054;-48
2023/05/30 07:39:26;;;;;;;3.90;1.27;;;;;;;14.69;72.76;101331.00;4995508;28;20065;-49
2023/05/30 07:41:52;;;;;;;1.88;1.00;;;;;;;14.64;73.09;101324.63;4995251;28;20173;-50
2023/05/30 07:44:18;;;;;;;3.70;1.15;;;;;;;14.64;72.70;101322.75;5010482;28;20168;-50
2023/05/30 07:46:45;;;;;;;1.10;0.80;;;;;;;14.63;72.95;101325.69;4995884;28;20064;-49
2023/05/30 07:49:12;;;;;;;2.47;1.30;;;;;;;14.60;73.09;101331.50;4995268;28;20423;-50
2023/05/30 07:51:38;;;;;;;2.65;0.90;;;;;;;14.60;73.50;101331.50;4995266;28;20040;-50
2023/05/30 07:54:05;;;;;;;2.47;0.90;;;;;;;14.57;73.55;101327.41;5010337;28;20105;-51
2023/05/30 07:56:32;;;;;;;1.10;0.70;;;;;;;14.51;74.02;101321.03;4995149;28;20030;-51
2023/05/30 07:58:58;;;;;;;1.52;0.80;;;;;;;14.52;73.83;101319.16;4995434;28;20399;-50
2023/05/30 08:01:24;;;;;;;2.05;0.88;;;;;;;14.56;73.53;101314.16;4994982;28;20034;-51
2023/05/30 08:03:50;;;;;;;1.85;0.82;;;;;;;14.56;73.45;101311.47;4994781;28;20085;-50
2023/05/30 08:06:17;;;;;;;2.55;0.68;;;;;;;14.53;73.67;101313.53;4995086;28;20105;-46
2023/05/30 08:08:43;;;;;;;2.53;0.95;;;;;;;14.48;73.50;101307.97;4995388;28;20081;-50
2023/05/30 08:11:09;;;;;;;1.90;0.85;;;;;;;14.42;73.91;101308.00;4994605;28;20033;-49
2023/05/30 08:13:36;;;;;;;1.17;0.80;;;;;;;14.57;73.36;101315.78;4994823;28;20018;-50
2023/05/30 08:16:03;;;;;;;2.42;0.88;;;;;;;14.46;73.60;101320.00;4994775;28;20044;-50
2023/05/30 08:18:31;;;;;;;3.25;0.90;;;;;;;14.28;75.02;101312.69;4994840;28;20450;-50
2023/05/30 08:20:58;;;;;;;2.17;0.77;;;;;;;14.45;74.17;101311.09;4994910;28;20446;-50
2023/05/30 08:23:24;;;;;;;1.05;0.65;;;;;;;14.43;74.27;101318.56;4994645;28;20116;-48
2023/05/30 08:25:50;;;;;;;1.27;0.82;;;;;;;14.38;74.32;101317.56;4994513;28;20026;-47
2023/05/30 08:28:17;;;;;;;2.65;0.80;;;;;;;14.35;74.68;101316.16;4994659;28;20066;-50
2023/05/30 08:30:48;;;;;;;3.05;1.00;;;;;;;14.34;74.40;101313.69;4994894;28;20034;-50
2023/05/30 08:33:19;;;;;;;3.20;0.82;;;;;;;14.36;73.76;101315.09;4994520;28;20022;-50
2023/05/30 08:35:46;;;;;;;1.05;0.70;;;;;;;14.38;74.11;101312.19;4994099;28;20050;-49
2023/05/30 08:38:14;;;;;;;2.38;1.13;;;;;;;14.39;73.66;101311.97;4994689;28;20057;-51
2023/05/30 08:40:45;;;;;;;3.10;0.80;;;;;;;14.21;74.30;101314.59;4994387;28;20263;-50
2023/05/30 08:43:12;;;;;;;2.53;0.90;;;;;;;14.25;74.17;101307.72;4994375;28;20490;-50
2023/05/30 08:45:39;;;;;;;1.10;0.82;;;;;;;14.13;74.83;101312.16;4994243;28;20494;-50
2023/05/30 08:48:06;;;;;;;1.77;0.70;;;;;;;14.11;74.52;101312.41;4994283;28;20160;-51
2023/05/30 08:50:36;;;;;;;2.58;0.82;;;;;;;14.19;74.38;101298.66;4994359;28;20033;-49
2023/05/30 08:53:12;;;;;;;1.30;0.80;;;;;;;14.19;74.46;101317.50;4994401;28;20026;-51
2023/05/30 08:55:54;;;;;;;1.38;0.82;;;;;;;14.21;74.35;101307.34;4994166;28;20022;-50
2023/05/30 08:58:29;;;;;;;1.73;0.90;;;;;;;14.20;74.29;101305.69;4994367;28;20023;-50
2023/05/30 09:00:56;;;;;;;1.48;0.95;;;;;;;14.11;74.70;101301.63;4994029;28;20033;-51
2023/05/30 09:03:24;;;;;;;1.63;1.05;;;;;;;14.08;74.99;101296.66;4994044;28;20073;-51
2023/05/30 09:05:51;;;;;;;1.75;1.10;;;;;;;14.04;75.09;101295.44;4994117;28;20379;-47
2023/05/30 09:08:18;;;;;;;2.33;0.93;;;;;;;14.05;74.86;101297.13;4993880;28;20475;-51
2023/05/30 09:10:51;;;;;;;2.70;0.95;;;;;;;14.10;74.58;101293.75;4993706;28;20074;-48
2023/05/30 09:13:17;;;;;;;2.47;1.00;;;;;;;14.27;73.60;101295.72;4994008;28;20160;-50
2023/05/30 09:15:44;;;;;;;1.52;1.10;;;;;;;14.26;73.77;101293.22;4993652;28;20105;-47
2023/05/30 09:18:11;;;;;;;1.48;0.93;;;;;;;14.17;73.80;101292.69;4993716;28;20101;-50
2023/05/30 09:20:38;;;;;;;1.98;1.00;;;;;;;14.15;73.91;101286.66;4993872;28;20026;-46
2023/05/30 09:23:08;;;;;;;1.73;1.08;;;;;;;14.21;73.57;101288.50;4992941;28;20113;-46
2023/05/30 09:25:51;;;;;;;2.40;1.08;;;;;;;14.17;73.89;101283.78;4993642;28;20483;-50
2023/05/30 09:28:25;;;;;;;2.90;1.25;;;;;;;14.19;73.56;101279.81;4993689;28;20030;-51
2023/05/30 09:30:58;;;;;;;1.95;1.17;;;;;;;14.13;74.26;101277.19;4993498;28;20034;-50
2023/05/30 09:33:40;;;;;;;1.35;0.90;;;;;;;14.12;74.21;101279.03;4993535;28;20110;-47
2023/05/30 09:36:12;;;;;;;2.28;1.30;;;;;;;14.04;74.50;101279.28;4993444;28;20065;-47
2023/05/30 09:38:38;;;;;;;4.75;1.17;;;;;;;14.10;74.37;101282.97;4993522;28;20471;-50
2023/05/30 09:41:05;;;;;;;5.45;1.40;;;;;;;14.10;74.34;101282.97;4993452;28;20479;-47
2023/05/30 09:43:34;;;;;;;0.95;0.90;;;;;;;14.25;73.65;101278.09;4993268;28;20080;-47
2023/05/30 09:46:06;;;;;;;1.60;1.00;;;;;;;14.26;73.63;101283.25;4993330;28;20109;-49
2023/05/30 09:48:33;;;;;;;3.92;1.30;;;;;;;14.32;73.14;101286.13;4993504;28;20530;-46
2023/05/30 09:51:01;;;;;;;2.95;1.23;;;;;;;14.31;73.51;101279.91;4993311;28;20034;-47
2023/05/30 09:53:32;;;;;;;1.33;1.08;;;;;;;14.29;73.39;101279.31;4993252;28;20022;-49
2023/05/30 09:56:01;;;;;;;2.88;1.30;;;;;;;14.31;73.55;101274.53;4993262;28;20022;-46
2023/05/30 09:58:27;;;;;;;2.22;1.33;;;;;;;14.12;74.60;101276.34;4993520;28;20065;-47
2023/05/30 10:00:56;;;;;;;2.28;1.10;;;;;;;14.24;73.90;101281.84;4993230;28;20057;-46
2023/05/30 10:03:43;;;;;;;1.10;0.90;;;;;;;14.30;73.65;101272.06;4993209;28;20470;-48
2023/05/30 10:06:14;;;;;;;3.10;1.20;;;;;;;14.45;73.10;101286.03;4993280;28;20022;-47
2023/05/30 10:08:46;;;;;;;2.28;1.20;;;;;;;14.37;73.07;101276.34;4993260;28;20026;-47
2023/05/30 10:11:16;;;;;;;1.55;1.23;;;;;;;14.36;72.56;101273.88;4993331;28;20069;-46
2023/05/30 10:13:42;;;;;;;1.58;1.00;;;;;;;14.41;72.13;101276.75;4992908;28;20031;-47
2023/05/30 10:16:17;;;;;;;2.97;1.10;;;;;;;14.47;71.78;101275.88;4993126;28;20057;-46
2023/05/30 10:18:51;;;;;;;3.15;1.27;;;;;;;14.43;71.59;101272.75;4993219;28;20041;-46
2023/05/30 10:21:22;;;;;;;2.47;1.30;;;;;;;14.35;72.00;101270.38;4993560;28;20026;-47
2023/05/30 10:23:48;;;;;;;1.73;1.00;;;;;;;14.39;71.53;101268.06;4993080;28;20029;-48
2023/05/30 10:26:17;;;;;;;3.08;1.27;;;;;;;14.49;70.83;101277.31;4993145;28;20030;-48
2023/05/30 10:28:45;;;;;;;2.22;1.27;;;;;;;14.41;71.46;101274.03;4993161;28;20027;-48
2023/05/30 10:31:13;;;;;;;1.88;0.90;;;;;;;14.30;71.80;101272.88;4992965;28;20030;-47
2023/05/30 10:33:44;;;;;;;1.48;1.13;;;;;;;14.21;71.85;101279.59;4993641;28;20080;-46
2023/05/30 10:36:12;;;;;;;1.95;0.95;;;;;;;14.29;71.31;101271.25;4996558;28;20042;-46
2023/05/30 10:38:52;;;;;;;3.28;1.15;;;;;;;14.29;71.34;101265.03;4996595;28;20498;-47
2023/05/30 10:41:32;;;;;;;1.80;1.00;;;;;;;14.34;70.82;101266.03;4996526;28;20034;-48
2023/05/30 10:44:04;;;;;;;2.05;0.90;;;;;;;14.20;71.04;101268.00;4997007;28;20105;-49
2023/05/30 10:46:39;;;;;;;2.85;1.17;;;;;;;14.24;70.88;101263.81;4997349;28;20096;-47
2023/05/30 10:49:27;;;;;;;1.13;0.80;;;;;;;14.27;71.03;101259.88;4996491;28;20116;-47
2023/05/30 10:52:07;;;;;;;1.38;1.00;;;;;;;14.29;70.93;101263.16;4996287;28;20030;-48
2023/05/30 10:54:36;;;;;;;1.10;0.90;;;;;;;14.40;70.83;101259.75;4996506;28;20030;-49
2023/05/30 10:57:27;;;;;;;1.65;1.00;;;;;;;14.25;70.70;101253.88;4996320;28;20034;-48
2023/05/30 10:59:59;;;;;;;2.97;1.17;;;;;;;14.17;71.27;101246.09;4996221;28;20110;-47
2023/05/30 11:02:34;;;;;;;3.83;1.38;;;;;;;14.25;70.87;101256.56;4996078;28;20026;-48
2023/05/30 11:05:06;;;;;;;1.55;1.00;;;;;;;14.19;71.00;101255.59;4996338;28;20034;-47
2023/05/30 11:07:40;;;;;;;1.30;0.90;;;;;;;14.20;71.25;101259.91;4996176;28;20479;-50
2023/05/30 11:10:10;;;;;;;5.68;1.23;;;;;;;14.25;71.04;101257.38;5011075;28;20049;-50
2023/05/30 11:12:43;;;;;;;2.85;1.15;;;;;;;14.23;71.53;101261.34;4995949;28;20438;-48
2023/05/30 11:15:14;;;;;;;2.28;1.10;;;;;;;14.33;71.26;101271.66;4996291;28;20374;-50
2023/05/30 11:17:41;;;;;;;2.35;0.95;;;;;;;14.29;70.85;101260.47;4996059;28;20026;-48
2023/05/30 11:20:14;;;;;;;2.17;1.00;;;;;;;14.33;70.76;101250.09;4995714;28;20030;-47
2023/05/30 11:22:41;;;;;;;1.48;0.80;;;;;;;14.30;70.96;101243.28;4995926;28;20030;-47
2023/05/30 11:25:17;;;;;;;1.25;0.95;;;;;;;14.43;70.82;101242.31;4995875;28;20050;-47
2023/05/30 11:28:01;;;;;;;;;;;;;;;14.34;70.82;101244.47;4996240;28;20046;-49
2023/05/30 11:30:29;;;;;;;1.52;0.93;;;;;;;14.35;71.19;101246.13;4995708;28;19910;-47